Kaami — C6VO9 — position and weather

sailwx.info

Track history (hours):
 
Tides and Currents Weather Stations Pressure Air Temp Water Temp Dewpoint Dewpoint Depression Visibility Wind Speed Wind Dir Waves Ship Positions

Kaami

Last reported at 2017-Mar-28 07:32 UTC. Time now 2017-Mar-28 08:00 UTC.
Position N 56°33' E 017°42'.

Length 90 m; draft 4.7 m.

Type: Cargo ship. MMSI: 308542000.

Date/timePositionNaut miles runAvg speedWind from/ knotsBaromVisibWave heightAir tempDewpointWater temp
2017-Mar-28 07:32N 56°33' E 017°42'8 7.9
2017-Mar-28 06:29N 56°38' E 017°54'16 7.6
2017-Mar-28 04:20N 56°47' E 018°18'  
2017-Mar-19 22:15N 56°08' E 016°55'6 8.9
2017-Mar-19 21:32N 56°04' E 016°46'9 8.8
2017-Mar-19 20:33N 55°60' E 016°33'9 8.7
2017-Mar-19 19:33N 55°55' E 016°19'9 8.9
2017-Mar-19 18:33N 55°51' E 016°06'9 8.9
2017-Mar-19 17:33N 55°47' E 015°52'9 9.2
2017-Mar-19 16:33N 55°42' E 015°37'9 9.4
2017-Mar-19 15:33N 55°37' E 015°23'10 9.5
2017-Mar-19 14:33N 55°33' E 015°08'10 9.5
2017-Mar-19 13:33N 55°28' E 014°53'9 9.4
2017-Mar-19 12:33N 55°23' E 014°39'10 9.8
2017-Mar-19 11:33N 55°16' E 014°28'9 9.5
2017-Mar-19 10:33N 55°09' E 014°17'9 9.1
2017-Mar-19 09:33N 55°02' E 014°06'9 9.3
2017-Mar-19 08:33N 54°58' E 013°51'10 9.1
2017-Mar-19 07:28N 54°55' E 013°36'12 9.2
2017-Mar-19 06:08N 54°51' E 013°15'14 9.1
2017-Mar-19 04:33N 54°46' E 012°51'9 9.0
2017-Mar-19 03:33N 54°42' E 012°38'18 9.1
2017-Mar-19 01:33N 54°29' E 012°15'9 8.6
2017-Mar-19 00:33N 54°24' E 012°03'2010.1
2017-Mar-18 22:33N 54°29' E 011°30'1110.7
2017-Mar-18 21:33N 54°34' E 011°13'1010.3
2017-Mar-18 20:33N 54°34' E 010°55'10 9.6
2017-Mar-18 19:33N 54°33' E 010°39'54 6.7
2017-Mar-18 11:31N 54°05' E 009°19'8 8.5
2017-Mar-18 10:33N 53°57' E 009°15'5 5.0
2017-Mar-18 09:32N 53°54' E 009°09'2 1.6
2017-Mar-18 08:33N 53°53' E 009°06'2 2.0
2017-Mar-18 07:33N 53°52' E 009°03'  
Track history (hours):
 
Tides and Currents Weather Stations Pressure Air Temp Water Temp Dewpoint Dewpoint Depression Visibility Wind Speed Wind Dir Waves Ship Positions

Kaami

Last reported at 2017-Mar-28 07:32 UTC. Time now 2017-Mar-28 08:00 UTC.
Position N 56°33' E 017°42'.

Length 90 m; draft 4.7 m.

Type: Cargo ship. MMSI: 308542000.

Date/timePositionNaut miles runAvg speedWind from/ knotsBaromVisibWave heightAir tempDewpointWater temp
2017-Mar-28 07:32N 56°33' E 017°42'8 7.9
2017-Mar-28 06:29N 56°38' E 017°54'16 7.6
2017-Mar-28 04:20N 56°47' E 018°18'  
2017-Mar-19 22:15N 56°08' E 016°55'6 8.9
2017-Mar-19 21:32N 56°04' E 016°46'9 8.8
2017-Mar-19 20:33N 55°60' E 016°33'9 8.7
2017-Mar-19 19:33N 55°55' E 016°19'9 8.9
2017-Mar-19 18:33N 55°51' E 016°06'9 8.9
2017-Mar-19 17:33N 55°47' E 015°52'9 9.2
2017-Mar-19 16:33N 55°42' E 015°37'9 9.4
2017-Mar-19 15:33N 55°37' E 015°23'10 9.5
2017-Mar-19 14:33N 55°33' E 015°08'10 9.5
2017-Mar-19 13:33N 55°28' E 014°53'9 9.4
2017-Mar-19 12:33N 55°23' E 014°39'10 9.8
2017-Mar-19 11:33N 55°16' E 014°28'9 9.5
2017-Mar-19 10:33N 55°09' E 014°17'9 9.1
2017-Mar-19 09:33N 55°02' E 014°06'9 9.3
2017-Mar-19 08:33N 54°58' E 013°51'10 9.1
2017-Mar-19 07:28N 54°55' E 013°36'12 9.2
2017-Mar-19 06:08N 54°51' E 013°15'14 9.1
2017-Mar-19 04:33N 54°46' E 012°51'9 9.0
2017-Mar-19 03:33N 54°42' E 012°38'18 9.1
2017-Mar-19 01:33N 54°29' E 012°15'9 8.6
2017-Mar-19 00:33N 54°24' E 012°03'2010.1
2017-Mar-18 22:33N 54°29' E 011°30'1110.7
2017-Mar-18 21:33N 54°34' E 011°13'1010.3
2017-Mar-18 20:33N 54°34' E 010°55'10 9.6
2017-Mar-18 19:33N 54°33' E 010°39'54 6.7
2017-Mar-18 11:31N 54°05' E 009°19'8 8.5
2017-Mar-18 10:33N 53°57' E 009°15'5 5.0
2017-Mar-18 09:32N 53°54' E 009°09'2 1.6
2017-Mar-18 08:33N 53°53' E 009°06'2 2.0
2017-Mar-18 07:33N 53°52' E 009°03'  

Dump ship's entire track history